sensor_id;sensor_type;location;lat;lon;timestamp;pressure;altitude;pressure_sealevel;temperature;humidity
31331;BME280;34067;39.548;-76.088;2023-02-12T00:00:42;102583.73;;;6.41;33.17
31331;BME280;34067;39.548;-76.088;2023-02-12T00:03:11;102587.79;;;6.28;33.01
31331;BME280;34067;39.548;-76.088;2023-02-12T00:05:40;102594.68;;;6.27;32.85
31331;BME280;34067;39.548;-76.088;2023-02-12T00:08:08;102601.10;;;6.54;32.70
31331;BME280;34067;39.548;-76.088;2023-02-12T00:10:40;102601.50;;;5.70;32.82
31331;BME280;34067;39.548;-76.088;2023-02-12T00:13:09;102598.01;;;6.06;32.55
31331;BME280;34067;39.548;-76.088;2023-02-12T00:15:38;102596.24;;;6.18;32.56
31331;BME280;34067;39.548;-76.088;2023-02-12T00:18:06;102585.74;;;6.26;33.14
31331;BME280;34067;39.548;-76.088;2023-02-12T00:20:35;102586.42;;;6.61;32.67
31331;BME280;34067;39.548;-76.088;2023-02-12T00:23:04;102595.43;;;6.50;32.49
31331;BME280;34067;39.548;-76.088;2023-02-12T00:25:33;102593.40;;;6.67;32.58
31331;BME280;34067;39.548;-76.088;2023-02-12T00:28:01;102608.12;;;6.94;37.19
31331;BME280;34067;39.548;-76.088;2023-02-12T00:30:30;102620.57;;;6.40;39.77
31331;BME280;34067;39.548;-76.088;2023-02-12T00:32:58;102624.76;;;6.13;38.75
31331;BME280;34067;39.548;-76.088;2023-02-12T00:35:26;102632.15;;;5.71;39.47
31331;BME280;34067;39.548;-76.088;2023-02-12T00:37:54;102622.72;;;6.07;42.21
31331;BME280;34067;39.548;-76.088;2023-02-12T00:40:23;102625.86;;;5.87;41.59
31331;BME280;34067;39.548;-76.088;2023-02-12T00:42:52;102626.63;;;5.99;41.97
31331;BME280;34067;39.548;-76.088;2023-02-12T00:45:20;102621.98;;;5.88;39.38
31331;BME280;34067;39.548;-76.088;2023-02-12T00:47:48;102616.39;;;6.37;39.43
31331;BME280;34067;39.548;-76.088;2023-02-12T00:50:16;102618.52;;;5.72;39.36
31331;BME280;34067;39.548;-76.088;2023-02-12T00:52:45;102621.86;;;5.11;36.94
31331;BME280;34067;39.548;-76.088;2023-02-12T00:55:13;102616.70;;;4.76;40.42
31331;BME280;34067;39.548;-76.088;2023-02-12T00:57:42;102602.34;;;4.61;47.04
31331;BME280;34067;39.548;-76.088;2023-02-12T01:00:10;102601.10;;;2.25;49.53
31331;BME280;34067;39.548;-76.088;2023-02-12T01:02:40;102597.91;;;3.60;45.65
31331;BME280;34067;39.548;-76.088;2023-02-12T01:05:07;102582.45;;;4.97;45.25
31331;BME280;34067;39.548;-76.088;2023-02-12T01:07:35;102586.13;;;3.65;49.18
31331;BME280;34067;39.548;-76.088;2023-02-12T01:10:05;102605.04;;;4.11;48.91
31331;BME280;34067;39.548;-76.088;2023-02-12T01:12:34;102607.37;;;4.59;48.43
31331;BME280;34067;39.548;-76.088;2023-02-12T01:15:02;102609.92;;;4.41;49.54
31331;BME280;34067;39.548;-76.088;2023-02-12T01:17:30;102615.83;;;4.59;47.22
31331;BME280;34067;39.548;-76.088;2023-02-12T01:19:59;102605.90;;;5.24;43.12
31331;BME280;34067;39.548;-76.088;2023-02-12T01:22:27;102592.73;;;5.40;42.53
31331;BME280;34067;39.548;-76.088;2023-02-12T01:24:55;102584.38;;;5.40;43.40
31331;BME280;34067;39.548;-76.088;2023-02-12T01:27:23;102571.88;;;4.14;45.71
31331;BME280;34067;39.548;-76.088;2023-02-12T01:29:51;102575.32;;;4.04;48.86
31331;BME280;34067;39.548;-76.088;2023-02-12T01:32:19;102583.56;;;3.92;48.36
31331;BME280;34067;39.548;-76.088;2023-02-12T01:34:47;102568.52;;;4.06;47.82
31331;BME280;34067;39.548;-76.088;2023-02-12T01:37:15;102559.44;;;2.74;49.68
31331;BME280;34067;39.548;-76.088;2023-02-12T01:39:43;102564.12;;;3.69;48.29
31331;BME280;34067;39.548;-76.088;2023-02-12T01:42:12;102565.18;;;4.14;46.77
31331;BME280;34067;39.548;-76.088;2023-02-12T01:44:45;102567.72;;;4.35;45.71
31331;BME280;34067;39.548;-76.088;2023-02-12T01:47:46;102568.53;;;4.92;46.23
31331;BME280;34067;39.548;-76.088;2023-02-12T01:50:16;102572.77;;;4.37;49.29
31331;BME280;34067;39.548;-76.088;2023-02-12T01:52:49;102573.97;;;4.65;49.75
31331;BME280;34067;39.548;-76.088;2023-02-12T01:55:20;102595.94;;;4.25;50.62
31331;BME280;34067;39.548;-76.088;2023-02-12T01:57:49;102611.23;;;4.26;48.97
31331;BME280;34067;39.548;-76.088;2023-02-12T02:00:23;102615.10;;;4.22;47.80
31331;BME280;34067;39.548;-76.088;2023-02-12T02:02:54;102610.89;;;4.92;46.77
31331;BME280;34067;39.548;-76.088;2023-02-12T02:05:30;102607.72;;;4.80;46.36
31331;BME280;34067;39.548;-76.088;2023-02-12T02:08:00;102616.68;;;4.16;45.83
31331;BME280;34067;39.548;-76.088;2023-02-12T02:10:29;102624.31;;;4.27;45.24
31331;BME280;34067;39.548;-76.088;2023-02-12T02:12:58;102629.86;;;5.13;43.67
31331;BME280;34067;39.548;-76.088;2023-02-12T02:15:30;102633.68;;;3.17;45.77
31331;BME280;34067;39.548;-76.088;2023-02-12T02:18:05;102633.31;;;3.33;46.79
31331;BME280;34067;39.548;-76.088;2023-02-12T02:21:58;102630.76;;;4.00;47.11
31331;BME280;34067;39.548;-76.088;2023-02-12T02:27:18;102609.32;;;4.86;49.81
31331;BME280;34067;39.548;-76.088;2023-02-12T02:30:28;102589.40;;;3.70;50.46
31331;BME280;34067;39.548;-76.088;2023-02-12T02:33:10;102586.92;;;3.07;56.58
31331;BME280;34067;39.548;-76.088;2023-02-12T02:35:45;102602.62;;;3.90;53.34
31331;BME280;34067;39.548;-76.088;2023-02-12T02:38:22;102615.03;;;3.49;53.16
31331;BME280;34067;39.548;-76.088;2023-02-12T02:40:59;102619.25;;;4.02;51.24
31331;BME280;34067;39.548;-76.088;2023-02-12T02:43:33;102626.73;;;4.33;48.92
31331;BME280;34067;39.548;-76.088;2023-02-12T02:46:05;102619.43;;;4.21;48.35
31331;BME280;34067;39.548;-76.088;2023-02-12T02:48:36;102611.43;;;4.78;48.43
31331;BME280;34067;39.548;-76.088;2023-02-12T02:51:09;102621.15;;;3.48;48.07
31331;BME280;34067;39.548;-76.088;2023-02-12T02:53:42;102607.07;;;4.23;48.36
31331;BME280;34067;39.548;-76.088;2023-02-12T02:56:14;102584.71;;;3.78;48.82
31331;BME280;34067;39.548;-76.088;2023-02-12T02:58:49;102571.57;;;1.84;51.17
31331;BME280;34067;39.548;-76.088;2023-02-12T03:01:23;102561.90;;;1.87;54.22
31331;BME280;34067;39.548;-76.088;2023-02-12T03:03:58;102552.13;;;2.54;54.98
31331;BME280;34067;39.548;-76.088;2023-02-12T03:06:35;102547.37;;;2.83;54.56
31331;BME280;34067;39.548;-76.088;2023-02-12T03:09:13;102542.20;;;2.20;54.25
31331;BME280;34067;39.548;-76.088;2023-02-12T03:11:43;102539.28;;;3.42;52.49
31331;BME280;34067;39.548;-76.088;2023-02-12T03:14:15;102529.31;;;3.07;51.07
31331;BME280;34067;39.548;-76.088;2023-02-12T03:16:51;102523.40;;;3.58;48.88
31331;BME280;34067;39.548;-76.088;2023-02-12T03:19:24;102525.89;;;3.57;48.81
31331;BME280;34067;39.548;-76.088;2023-02-12T03:21:57;102532.36;;;3.45;48.87
31331;BME280;34067;39.548;-76.088;2023-02-12T03:24:31;102525.40;;;3.60;49.38
31331;BME280;34067;39.548;-76.088;2023-02-12T03:27:06;102520.75;;;4.03;48.73
31331;BME280;34067;39.548;-76.088;2023-02-12T03:29:37;102517.75;;;3.93;49.01
31331;BME280;34067;39.548;-76.088;2023-02-12T03:32:15;102515.58;;;4.13;48.81
31331;BME280;34067;39.548;-76.088;2023-02-12T03:34:52;102509.38;;;3.51;51.02
31331;BME280;34067;39.548;-76.088;2023-02-12T03:37:26;102504.27;;;3.68;50.63
31331;BME280;34067;39.548;-76.088;2023-02-12T03:40:03;102509.72;;;3.47;50.84
31331;BME280;34067;39.548;-76.088;2023-02-12T03:42:43;102517.86;;;4.34;50.18
31331;BME280;34067;39.548;-76.088;2023-02-12T03:45:24;102510.16;;;4.12;49.45
31331;BME280;34067;39.548;-76.088;2023-02-12T03:48:03;102514.07;;;4.23;49.13
31331;BME280;34067;39.548;-76.088;2023-02-12T03:50:40;102525.38;;;4.12;48.78
31331;BME280;34067;39.548;-76.088;2023-02-12T03:53:09;102520.41;;;3.87;48.86
31331;BME280;34067;39.548;-76.088;2023-02-12T03:55:41;102510.69;;;4.29;48.22
31331;BME280;34067;39.548;-76.088;2023-02-12T03:58:16;102511.25;;;4.32;47.52
31331;BME280;34067;39.548;-76.088;2023-02-12T04:00:47;102506.60;;;4.07;46.96
31331;BME280;34067;39.548;-76.088;2023-02-12T04:03:14;102501.32;;;3.99;47.08
31331;BME280;34067;39.548;-76.088;2023-02-12T04:05:42;102501.87;;;4.44;47.25
31331;BME280;34067;39.548;-76.088;2023-02-12T04:08:11;102497.95;;;4.48;46.96
31331;BME280;34067;39.548;-76.088;2023-02-12T04:10:48;102494.37;;;4.13;48.41
31331;BME280;34067;39.548;-76.088;2023-02-12T04:13:27;102482.61;;;4.07;48.05
31331;BME280;34067;39.548;-76.088;2023-02-12T04:16:09;102481.35;;;3.87;47.94
31331;BME280;34067;39.548;-76.088;2023-02-12T04:18:42;102475.90;;;3.49;48.93
31331;BME280;34067;39.548;-76.088;2023-02-12T04:21:22;102464.30;;;3.37;50.14
31331;BME280;34067;39.548;-76.088;2023-02-12T04:24:04;102468.57;;;2.80;51.29
31331;BME280;34067;39.548;-76.088;2023-02-12T04:26:38;102465.92;;;2.81;52.48
31331;BME280;34067;39.548;-76.088;2023-02-12T04:29:17;102467.32;;;0.98;55.12
31331;BME280;34067;39.548;-76.088;2023-02-12T04:31:55;102475.84;;;2.19;52.93
31331;BME280;34067;39.548;-76.088;2023-02-12T04:34:27;102477.98;;;2.96;51.90
31331;BME280;34067;39.548;-76.088;2023-02-12T04:37:01;102468.97;;;3.33;51.13
31331;BME280;34067;39.548;-76.088;2023-02-12T04:39:36;102460.37;;;3.70;50.40
31331;BME280;34067;39.548;-76.088;2023-02-12T04:42:05;102460.44;;;2.96;51.08
31331;BME280;34067;39.548;-76.088;2023-02-12T04:44:37;102449.42;;;3.22;50.58
31331;BME280;34067;39.548;-76.088;2023-02-12T04:47:05;102441.45;;;3.79;50.44
31331;BME280;34067;39.548;-76.088;2023-02-12T04:49:34;102439.95;;;3.47;49.95
31331;BME280;34067;39.548;-76.088;2023-02-12T04:52:02;102433.17;;;4.12;49.78
31331;BME280;34067;39.548;-76.088;2023-02-12T04:54:30;102426.33;;;3.74;49.82
31331;BME280;34067;39.548;-76.088;2023-02-12T04:56:59;102438.57;;;2.97;51.27
31331;BME280;34067;39.548;-76.088;2023-02-12T04:59:28;102432.04;;;2.42;51.70
31331;BME280;34067;39.548;-76.088;2023-02-12T05:01:56;102427.49;;;2.69;51.49
31331;BME280;34067;39.548;-76.088;2023-02-12T05:04:24;102432.49;;;3.47;51.13
31331;BME280;34067;39.548;-76.088;2023-02-12T05:06:52;102433.21;;;2.76;52.11
31331;BME280;34067;39.548;-76.088;2023-02-12T05:09:20;102428.46;;;3.66;50.76
31331;BME280;34067;39.548;-76.088;2023-02-12T05:11:49;102437.04;;;3.46;50.22
31331;BME280;34067;39.548;-76.088;2023-02-12T05:14:17;102437.80;;;3.05;49.77
31331;BME280;34067;39.548;-76.088;2023-02-12T05:16:45;102432.66;;;3.08;50.31
31331;BME280;34067;39.548;-76.088;2023-02-12T05:19:13;102431.02;;;2.32;50.88
31331;BME280;34067;39.548;-76.088;2023-02-12T05:21:41;102424.08;;;1.64;51.43
31331;BME280;34067;39.548;-76.088;2023-02-12T05:24:10;102416.63;;;2.94;50.09
31331;BME280;34067;39.548;-76.088;2023-02-12T05:26:38;102414.10;;;2.90;50.02
31331;BME280;34067;39.548;-76.088;2023-02-12T05:29:06;102401.19;;;3.38;49.25
31331;BME280;34067;39.548;-76.088;2023-02-12T05:31:34;102400.38;;;3.37;49.56
31331;BME280;34067;39.548;-76.088;2023-02-12T05:34:02;102414.95;;;2.85;50.35
31331;BME280;34067;39.548;-76.088;2023-02-12T05:36:31;102422.85;;;2.10;51.45
31331;BME280;34067;39.548;-76.088;2023-02-12T05:38:59;102425.30;;;2.50;53.22
31331;BME280;34067;39.548;-76.088;2023-02-12T05:41:27;102420.47;;;1.45;53.66
31331;BME280;34067;39.548;-76.088;2023-02-12T05:43:55;102410.11;;;0.47;56.21
31331;BME280;34067;39.548;-76.088;2023-02-12T05:46:24;102408.89;;;1.40;55.86
31331;BME280;34067;39.548;-76.088;2023-02-12T05:48:52;102401.20;;;1.05;56.47
31331;BME280;34067;39.548;-76.088;2023-02-12T05:51:22;102399.82;;;1.35;55.26
31331;BME280;34067;39.548;-76.088;2023-02-12T05:53:55;102405.74;;;1.65;53.69
31331;BME280;34067;39.548;-76.088;2023-02-12T05:56:25;102401.74;;;2.99;51.46
31331;BME280;34067;39.548;-76.088;2023-02-12T05:58:56;102400.51;;;3.25;50.50
31331;BME280;34067;39.548;-76.088;2023-02-12T06:03:10;102396.70;;;3.26;49.53
31331;BME280;34067;39.548;-76.088;2023-02-12T06:05:37;102397.71;;;3.47;48.94
31331;BME280;34067;39.548;-76.088;2023-02-12T06:08:05;102398.62;;;2.95;48.15
31331;BME280;34067;39.548;-76.088;2023-02-12T06:10:32;102394.31;;;3.10;48.19
31331;BME280;34067;39.548;-76.088;2023-02-12T06:13:00;102400.72;;;2.91;48.51
31331;BME280;34067;39.548;-76.088;2023-02-12T06:15:28;102392.35;;;2.39;48.36
31331;BME280;34067;39.548;-76.088;2023-02-12T06:17:56;102380.51;;;2.82;50.26
31331;BME280;34067;39.548;-76.088;2023-02-12T06:20:23;102379.24;;;2.44;50.54
31331;BME280;34067;39.548;-76.088;2023-02-12T06:22:51;102376.29;;;3.10;49.91
31331;BME280;34067;39.548;-76.088;2023-02-12T06:25:19;102375.31;;;3.10;50.36
31331;BME280;34067;39.548;-76.088;2023-02-12T06:27:48;102374.38;;;2.45;49.57
31331;BME280;34067;39.548;-76.088;2023-02-12T06:30:16;102366.26;;;2.84;49.41
31331;BME280;34067;39.548;-76.088;2023-02-12T06:32:48;102364.88;;;2.94;49.23
31331;BME280;34067;39.548;-76.088;2023-02-12T06:35:16;102354.77;;;3.02;49.02
31331;BME280;34067;39.548;-76.088;2023-02-12T06:37:44;102338.41;;;3.15;49.60
31331;BME280;34067;39.548;-76.088;2023-02-12T06:40:12;102343.53;;;1.92;53.77
31331;BME280;34067;39.548;-76.088;2023-02-12T06:42:40;102335.90;;;2.24;54.25
31331;BME280;34067;39.548;-76.088;2023-02-12T06:45:08;102325.63;;;1.21;56.39
31331;BME280;34067;39.548;-76.088;2023-02-12T06:47:36;102317.98;;;1.48;55.03
31331;BME280;34067;39.548;-76.088;2023-02-12T06:50:06;102312.59;;;2.48;57.12
31331;BME280;34067;39.548;-76.088;2023-02-12T06:52:34;102305.78;;;0.35;61.53
31331;BME280;34067;39.548;-76.088;2023-02-12T06:55:02;102311.92;;;0.16;63.09
31331;BME280;34067;39.548;-76.088;2023-02-12T06:57:30;102313.73;;;-0.05;65.07
31331;BME280;34067;39.548;-76.088;2023-02-12T06:59:57;102308.50;;;-0.60;65.74
31331;BME280;34067;39.548;-76.088;2023-02-12T07:02:25;102309.21;;;-1.46;65.66
31331;BME280;34067;39.548;-76.088;2023-02-12T07:04:53;102310.59;;;-0.23;67.69
31331;BME280;34067;39.548;-76.088;2023-02-12T07:07:21;102317.18;;;-0.21;65.00
31331;BME280;34067;39.548;-76.088;2023-02-12T07:09:49;102331.20;;;-1.15;64.97
31331;BME280;34067;39.548;-76.088;2023-02-12T07:12:17;102336.45;;;0.07;62.96
31331;BME280;34067;39.548;-76.088;2023-02-12T07:14:44;102347.29;;;-0.62;63.14
31331;BME280;34067;39.548;-76.088;2023-02-12T07:17:12;102353.59;;;0.40;58.97
31331;BME280;34067;39.548;-76.088;2023-02-12T07:19:40;102354.07;;;0.87;56.96
31331;BME280;34067;39.548;-76.088;2023-02-12T07:22:09;102361.05;;;2.39;54.49
31331;BME280;34067;39.548;-76.088;2023-02-12T07:24:37;102365.11;;;2.30;52.48
31331;BME280;34067;39.548;-76.088;2023-02-12T07:27:05;102354.19;;;2.66;50.67
31331;BME280;34067;39.548;-76.088;2023-02-12T07:29:33;102343.38;;;2.62;50.48
31331;BME280;34067;39.548;-76.088;2023-02-12T07:32:01;102343.37;;;3.00;50.44
31331;BME280;34067;39.548;-76.088;2023-02-12T07:34:29;102351.30;;;2.94;51.02
31331;BME280;34067;39.548;-76.088;2023-02-12T07:36:57;102342.03;;;2.47;52.27
31331;BME280;34067;39.548;-76.088;2023-02-12T07:39:25;102335.33;;;1.15;54.12
31331;BME280;34067;39.548;-76.088;2023-02-12T07:41:55;102328.50;;;2.19;51.62
31331;BME280;34067;39.548;-76.088;2023-02-12T07:44:23;102319.03;;;2.86;49.70
31331;BME280;34067;39.548;-76.088;2023-02-12T07:46:52;102309.90;;;2.01;52.64
31331;BME280;34067;39.548;-76.088;2023-02-12T07:49:21;102310.82;;;2.06;53.76
31331;BME280;34067;39.548;-76.088;2023-02-12T07:51:48;102314.92;;;1.20;56.87
31331;BME280;34067;39.548;-76.088;2023-02-12T07:54:16;102315.82;;;0.99;56.18
31331;BME280;34067;39.548;-76.088;2023-02-12T07:56:44;102314.07;;;1.24;58.52
31331;BME280;34067;39.548;-76.088;2023-02-12T07:59:14;102316.58;;;-1.27;63.50
31331;BME280;34067;39.548;-76.088;2023-02-12T08:01:46;102311.83;;;0.03;63.01
31331;BME280;34067;39.548;-76.088;2023-02-12T08:04:16;102299.80;;;-0.90;64.32
31331;BME280;34067;39.548;-76.088;2023-02-12T08:06:48;102284.83;;;-0.32;63.49
31331;BME280;34067;39.548;-76.088;2023-02-12T08:09:18;102275.35;;;-1.17;65.42
31331;BME280;34067;39.548;-76.088;2023-02-12T08:11:46;102265.54;;;-1.79;66.30
31331;BME280;34067;39.548;-76.088;2023-02-12T08:14:16;102256.54;;;-2.11;67.36
31331;BME280;34067;39.548;-76.088;2023-02-12T08:16:45;102247.12;;;-0.06;66.13
31331;BME280;34067;39.548;-76.088;2023-02-12T08:19:13;102232.67;;;-0.18;64.41
31331;BME280;34067;39.548;-76.088;2023-02-12T08:21:41;102233.56;;;-1.24;67.06
31331;BME280;34067;39.548;-76.088;2023-02-12T08:24:10;102247.24;;;-1.20;68.72
31331;BME280;34067;39.548;-76.088;2023-02-12T08:26:39;102243.57;;;-0.36;67.36
31331;BME280;34067;39.548;-76.088;2023-02-12T08:29:09;102232.54;;;-0.13;63.56
31331;BME280;34067;39.548;-76.088;2023-02-12T08:31:40;102226.59;;;-2.19;68.90
31331;BME280;34067;39.548;-76.088;2023-02-12T08:34:16;102227.94;;;-1.07;66.24
31331;BME280;34067;39.548;-76.088;2023-02-12T08:36:45;102221.31;;;-2.45;69.79
31331;BME280;34067;39.548;-76.088;2023-02-12T08:39:13;102220.42;;;-0.89;69.82
31331;BME280;34067;39.548;-76.088;2023-02-12T08:41:41;102217.48;;;-1.10;68.05
31331;BME280;34067;39.548;-76.088;2023-02-12T08:44:10;102206.08;;;-0.59;66.05
31331;BME280;34067;39.548;-76.088;2023-02-12T08:46:39;102193.90;;;-0.38;62.03
31331;BME280;34067;39.548;-76.088;2023-02-12T08:49:12;102185.66;;;0.48;61.00
31331;BME280;34067;39.548;-76.088;2023-02-12T08:51:42;102181.09;;;1.38;58.30
31331;BME280;34067;39.548;-76.088;2023-02-12T08:54:12;102177.44;;;2.07;58.05
31331;BME280;34067;39.548;-76.088;2023-02-12T08:56:41;102173.95;;;1.52;56.50
31331;BME280;34067;39.548;-76.088;2023-02-12T08:59:10;102182.95;;;1.50;54.41
31331;BME280;34067;39.548;-76.088;2023-02-12T09:01:40;102184.40;;;0.86;56.03
31331;BME280;34067;39.548;-76.088;2023-02-12T09:04:09;102187.70;;;1.57;54.78
31331;BME280;34067;39.548;-76.088;2023-02-12T09:06:40;102178.30;;;1.41;56.06
31331;BME280;34067;39.548;-76.088;2023-02-12T09:09:08;102180.82;;;1.76;56.04
31331;BME280;34067;39.548;-76.088;2023-02-12T09:11:36;102188.25;;;0.32;59.67
31331;BME280;34067;39.548;-76.088;2023-02-12T09:14:06;102176.99;;;-0.70;60.96
31331;BME280;34067;39.548;-76.088;2023-02-12T09:16:36;102173.27;;;-1.70;65.30
31331;BME280;34067;39.548;-76.088;2023-02-12T09:19:04;102170.50;;;-1.22;66.59
31331;BME280;34067;39.548;-76.088;2023-02-12T09:21:32;102173.02;;;-0.54;66.46
31331;BME280;34067;39.548;-76.088;2023-02-12T09:24:01;102171.52;;;0.97;61.12
31331;BME280;34067;39.548;-76.088;2023-02-12T09:26:29;102177.03;;;0.46;61.84
31331;BME280;34067;39.548;-76.088;2023-02-12T09:28:56;102174.18;;;2.43;59.27
31331;BME280;34067;39.548;-76.088;2023-02-12T09:31:26;102173.95;;;1.80;59.05
31331;BME280;34067;39.548;-76.088;2023-02-12T09:33:58;102165.09;;;1.18;59.71
31331;BME280;34067;39.548;-76.088;2023-02-12T09:36:27;102165.01;;;2.20;59.27
31331;BME280;34067;39.548;-76.088;2023-02-12T09:38:55;102166.70;;;0.15;61.36
31331;BME280;34067;39.548;-76.088;2023-02-12T09:41:40;102165.47;;;0.70;62.23
31331;BME280;34067;39.548;-76.088;2023-02-12T09:44:21;102162.99;;;0.55;63.61
31331;BME280;34067;39.548;-76.088;2023-02-12T09:46:59;102167.51;;;-0.12;65.21
31331;BME280;34067;39.548;-76.088;2023-02-12T09:49:52;102171.92;;;-0.04;63.59
31331;BME280;34067;39.548;-76.088;2023-02-12T09:52:26;102173.43;;;0.11;63.84
31331;BME280;34067;39.548;-76.088;2023-02-12T09:54:55;102183.21;;;-0.33;64.31
31331;BME280;34067;39.548;-76.088;2023-02-12T09:57:27;102192.20;;;-0.41;66.28
31331;BME280;34067;39.548;-76.088;2023-02-12T09:59:59;102193.76;;;0.41;62.47
31331;BME280;34067;39.548;-76.088;2023-02-12T10:02:28;102193.22;;;1.21;59.74
31331;BME280;34067;39.548;-76.088;2023-02-12T10:04:59;102193.39;;;2.21;57.45
31331;BME280;34067;39.548;-76.088;2023-02-12T10:07:43;102193.80;;;0.62;60.40
31331;BME280;34067;39.548;-76.088;2023-02-12T10:10:24;102185.65;;;1.09;60.49
31331;BME280;34067;39.548;-76.088;2023-02-12T10:13:00;102186.20;;;0.10;63.39
31331;BME280;34067;39.548;-76.088;2023-02-12T10:15:37;102188.56;;;0.04;64.88
31331;BME280;34067;39.548;-76.088;2023-02-12T10:18:24;102180.96;;;-0.10;64.03
31331;BME280;34067;39.548;-76.088;2023-02-12T10:21:09;102180.45;;;-1.01;67.01
31331;BME280;34067;39.548;-76.088;2023-02-12T10:23:55;102170.78;;;-0.62;67.26
31331;BME280;34067;39.548;-76.088;2023-02-12T10:26:30;102164.81;;;-0.76;67.44
31331;BME280;34067;39.548;-76.088;2023-02-12T10:29:06;102163.55;;;0.42;64.36
31331;BME280;34067;39.548;-76.088;2023-02-12T10:31:41;102155.96;;;0.74;63.94
31331;BME280;34067;39.548;-76.088;2023-02-12T10:34:17;102154.92;;;1.74;62.18
31331;BME280;34067;39.548;-76.088;2023-02-12T10:36:48;102141.81;;;-0.27;64.04
31331;BME280;34067;39.548;-76.088;2023-02-12T10:39:21;102144.06;;;1.04;64.07
31331;BME280;34067;39.548;-76.088;2023-02-12T10:41:56;102134.06;;;0.07;65.46
31331;BME280;34067;39.548;-76.088;2023-02-12T10:44:28;102140.85;;;0.51;64.03
31331;BME280;34067;39.548;-76.088;2023-02-12T10:46:56;102140.42;;;-0.39;67.46
31331;BME280;34067;39.548;-76.088;2023-02-12T10:49:24;102142.83;;;-0.53;65.81
31331;BME280;34067;39.548;-76.088;2023-02-12T10:52:01;102142.28;;;0.09;66.20
31331;BME280;34067;39.548;-76.088;2023-02-12T10:54:35;102142.20;;;-1.08;68.31
31331;BME280;34067;39.548;-76.088;2023-02-12T10:57:11;102134.51;;;-0.25;67.76
31331;BME280;34067;39.548;-76.088;2023-02-12T10:59:40;102133.94;;;-1.52;69.68
31331;BME280;34067;39.548;-76.088;2023-02-12T11:02:26;102133.93;;;0.25;68.22
31331;BME280;34067;39.548;-76.088;2023-02-12T11:04:55;102127.99;;;-0.67;68.79
31331;BME280;34067;39.548;-76.088;2023-02-12T11:07:24;102128.32;;;0.29;69.10
31331;BME280;34067;39.548;-76.088;2023-02-12T11:09:54;102121.57;;;-0.03;65.94
31331;BME280;34067;39.548;-76.088;2023-02-12T11:12:32;102114.93;;;0.60;65.81
31331;BME280;34067;39.548;-76.088;2023-02-12T11:15:03;102110.06;;;0.26;65.68
31331;BME280;34067;39.548;-76.088;2023-02-12T11:17:34;102114.85;;;-0.95;69.01
31331;BME280;34067;39.548;-76.088;2023-02-12T11:20:06;102117.70;;;-0.67;68.37
31331;BME280;34067;39.548;-76.088;2023-02-12T11:22:34;102112.25;;;-0.72;68.27
31331;BME280;34067;39.548;-76.088;2023-02-12T11:25:15;102097.84;;;-0.33;65.63
31331;BME280;34067;39.548;-76.088;2023-02-12T11:27:43;102092.67;;;-1.54;69.55
31331;BME280;34067;39.548;-76.088;2023-02-12T11:30:16;102091.74;;;-0.18;67.45
31331;BME280;34067;39.548;-76.088;2023-02-12T11:32:45;102083.79;;;-0.51;66.68
31331;BME280;34067;39.548;-76.088;2023-02-12T11:35:16;102079.65;;;-1.85;67.97
31331;BME280;34067;39.548;-76.088;2023-02-12T11:37:44;102074.72;;;-0.85;70.58
31331;BME280;34067;39.548;-76.088;2023-02-12T11:40:19;102067.74;;;-0.68;71.86
31331;BME280;34067;39.548;-76.088;2023-02-12T11:42:51;102064.67;;;-0.43;73.08
31331;BME280;34067;39.548;-76.088;2023-02-12T11:45:27;102061.98;;;-1.47;70.37
31331;BME280;34067;39.548;-76.088;2023-02-12T11:47:57;102063.42;;;-1.59;71.77
31331;BME280;34067;39.548;-76.088;2023-02-12T11:50:27;102060.49;;;-1.67;72.32
31331;BME280;34067;39.548;-76.088;2023-02-12T11:52:58;102048.40;;;-0.78;69.43
31331;BME280;34067;39.548;-76.088;2023-02-12T11:55:29;102051.61;;;-1.53;69.08
31331;BME280;34067;39.548;-76.088;2023-02-12T11:58:03;102056.34;;;-0.76;67.30
31331;BME280;34067;39.548;-76.088;2023-02-12T12:00:34;102059.60;;;-0.46;65.77
31331;BME280;34067;39.548;-76.088;2023-02-12T12:03:11;102059.21;;;-1.52;66.77
31331;BME280;34067;39.548;-76.088;2023-02-12T12:05:46;102063.74;;;-0.69;66.43
31331;BME280;34067;39.548;-76.088;2023-02-12T12:08:19;102059.76;;;-1.35;68.67
31331;BME280;34067;39.548;-76.088;2023-02-12T12:10:53;102054.77;;;-1.79;69.40
31331;BME280;34067;39.548;-76.088;2023-02-12T12:13:29;102049.95;;;0.44;65.77
31331;BME280;34067;39.548;-76.088;2023-02-12T12:16:07;102045.95;;;-1.89;68.69
31331;BME280;34067;39.548;-76.088;2023-02-12T12:18:42;102050.62;;;-1.43;70.63
31331;BME280;34067;39.548;-76.088;2023-02-12T12:21:17;102056.36;;;-1.80;76.03
31331;BME280;34067;39.548;-76.088;2023-02-12T12:23:51;102068.45;;;-0.98;73.76
31331;BME280;34067;39.548;-76.088;2023-02-12T12:26:24;102074.40;;;-1.32;73.92
31331;BME280;34067;39.548;-76.088;2023-02-12T12:28:59;102081.18;;;-1.08;74.62
31331;BME280;34067;39.548;-76.088;2023-02-12T12:31:33;102081.34;;;-2.00;72.97
31331;BME280;34067;39.548;-76.088;2023-02-12T12:34:06;102077.22;;;-2.54;74.65
31331;BME280;34067;39.548;-76.088;2023-02-12T12:36:52;102072.06;;;-2.11;74.87
31331;BME280;34067;39.548;-76.088;2023-02-12T12:39:28;102064.05;;;-1.57;75.86
31331;BME280;34067;39.548;-76.088;2023-02-12T12:42:45;102065.26;;;-1.21;73.13
31331;BME280;34067;39.548;-76.088;2023-02-12T12:45:29;102073.77;;;-1.96;72.88
31331;BME280;34067;39.548;-76.088;2023-02-12T12:48:15;102073.57;;;-1.10;70.51
31331;BME280;34067;39.548;-76.088;2023-02-12T12:50:58;102077.41;;;-0.23;68.98
31331;BME280;34067;39.548;-76.088;2023-02-12T12:53:43;102082.75;;;-1.27;72.26
31331;BME280;34067;39.548;-76.088;2023-02-12T12:56:34;102084.13;;;-0.11;69.64
31331;BME280;34067;39.548;-76.088;2023-02-12T12:59:20;102093.32;;;-1.66;73.98
31331;BME280;34067;39.548;-76.088;2023-02-12T13:02:14;102091.67;;;-1.05;71.23
31331;BME280;34067;39.548;-76.088;2023-02-12T13:05:18;102080.22;;;-2.24;76.04
31331;BME280;34067;39.548;-76.088;2023-02-12T13:07:56;102058.44;;;-0.65;71.80